sensor_id;sensor_type;location;lat;lon;timestamp;P1;durP1;ratioP1;P2;durP2;ratioP2
25237;SDS011;13185;50.872;5.306;2023-11-21T00:01:56;14.52;;;9.02;;
25237;SDS011;13185;50.872;5.306;2023-11-21T00:04:22;11.88;;;8.40;;
25237;SDS011;13185;50.872;5.306;2023-11-21T00:06:48;17.00;;;10.32;;
25237;SDS011;13185;50.872;5.306;2023-11-21T00:09:14;14.90;;;10.10;;
25237;SDS011;13185;50.872;5.306;2023-11-21T00:11:43;15.20;;;9.65;;
25237;SDS011;13185;50.872;5.306;2023-11-21T00:14:12;15.60;;;9.80;;
25237;SDS011;13185;50.872;5.306;2023-11-21T00:16:40;18.17;;;10.85;;
25237;SDS011;13185;50.872;5.306;2023-11-21T00:19:06;15.02;;;9.95;;
25237;SDS011;13185;50.872;5.306;2023-11-21T00:21:32;15.75;;;10.57;;
25237;SDS011;13185;50.872;5.306;2023-11-21T00:23:57;16.00;;;10.35;;
25237;SDS011;13185;50.872;5.306;2023-11-21T00:26:23;17.35;;;10.88;;
25237;SDS011;13185;50.872;5.306;2023-11-21T00:28:59;16.67;;;10.25;;
25237;SDS011;13185;50.872;5.306;2023-11-21T00:31:25;18.00;;;10.98;;
25237;SDS011;13185;50.872;5.306;2023-11-21T00:33:50;15.77;;;10.23;;
25237;SDS011;13185;50.872;5.306;2023-11-21T00:36:15;15.10;;;10.35;;
25237;SDS011;13185;50.872;5.306;2023-11-21T00:38:41;16.33;;;10.23;;
25237;SDS011;13185;50.872;5.306;2023-11-21T00:41:07;21.25;;;10.70;;
25237;SDS011;13185;50.872;5.306;2023-11-21T00:43:32;14.68;;;10.50;;
25237;SDS011;13185;50.872;5.306;2023-11-21T00:45:59;19.90;;;11.55;;
25237;SDS011;13185;50.872;5.306;2023-11-21T00:48:29;17.42;;;10.93;;
25237;SDS011;13185;50.872;5.306;2023-11-21T00:50:54;16.92;;;11.38;;
25237;SDS011;13185;50.872;5.306;2023-11-21T00:53:21;18.10;;;11.52;;
25237;SDS011;13185;50.872;5.306;2023-11-21T00:55:46;19.52;;;12.27;;
25237;SDS011;13185;50.872;5.306;2023-11-21T00:58:12;22.83;;;12.38;;
25237;SDS011;13185;50.872;5.306;2023-11-21T01:00:38;19.55;;;12.35;;
25237;SDS011;13185;50.872;5.306;2023-11-21T01:03:04;23.35;;;13.20;;
25237;SDS011;13185;50.872;5.306;2023-11-21T01:05:30;21.02;;;13.27;;
25237;SDS011;13185;50.872;5.306;2023-11-21T01:07:56;22.63;;;12.57;;
25237;SDS011;13185;50.872;5.306;2023-11-21T01:10:21;21.15;;;13.00;;
25237;SDS011;13185;50.872;5.306;2023-11-21T01:12:47;21.65;;;13.48;;
25237;SDS011;13185;50.872;5.306;2023-11-21T01:15:14;22.40;;;13.60;;
25237;SDS011;13185;50.872;5.306;2023-11-21T01:17:40;22.52;;;13.20;;
25237;SDS011;13185;50.872;5.306;2023-11-21T01:20:06;27.48;;;13.77;;
25237;SDS011;13185;50.872;5.306;2023-11-21T01:22:38;26.17;;;13.85;;
25237;SDS011;13185;50.872;5.306;2023-11-21T01:25:04;23.00;;;13.27;;
25237;SDS011;13185;50.872;5.306;2023-11-21T01:27:34;23.02;;;12.98;;
25237;SDS011;13185;50.872;5.306;2023-11-21T01:30:00;21.40;;;12.15;;
25237;SDS011;13185;50.872;5.306;2023-11-21T01:32:26;24.48;;;13.93;;
25237;SDS011;13185;50.872;5.306;2023-11-21T01:34:53;26.77;;;15.02;;
25237;SDS011;13185;50.872;5.306;2023-11-21T01:37:20;32.15;;;15.75;;
25237;SDS011;13185;50.872;5.306;2023-11-21T01:39:47;31.42;;;15.40;;
25237;SDS011;13185;50.872;5.306;2023-11-21T01:42:14;31.52;;;15.02;;
25237;SDS011;13185;50.872;5.306;2023-11-21T01:44:39;28.35;;;15.32;;
25237;SDS011;13185;50.872;5.306;2023-11-21T01:47:05;28.52;;;14.98;;
25237;SDS011;13185;50.872;5.306;2023-11-21T01:49:32;36.72;;;16.77;;
25237;SDS011;13185;50.872;5.306;2023-11-21T01:51:58;30.02;;;16.30;;
25237;SDS011;13185;50.872;5.306;2023-11-21T01:54:25;32.30;;;15.77;;
25237;SDS011;13185;50.872;5.306;2023-11-21T01:56:51;31.35;;;15.55;;
25237;SDS011;13185;50.872;5.306;2023-11-21T01:59:18;31.73;;;16.25;;
25237;SDS011;13185;50.872;5.306;2023-11-21T02:01:46;32.60;;;16.63;;
25237;SDS011;13185;50.872;5.306;2023-11-21T02:04:12;29.08;;;16.25;;
25237;SDS011;13185;50.872;5.306;2023-11-21T02:06:38;30.60;;;16.48;;
25237;SDS011;13185;50.872;5.306;2023-11-21T02:09:04;33.28;;;17.48;;
25237;SDS011;13185;50.872;5.306;2023-11-21T02:11:30;30.13;;;15.95;;
25237;SDS011;13185;50.872;5.306;2023-11-21T02:13:57;32.35;;;16.60;;
25237;SDS011;13185;50.872;5.306;2023-11-21T02:16:24;33.25;;;17.08;;
25237;SDS011;13185;50.872;5.306;2023-11-21T02:18:53;32.42;;;17.20;;
25237;SDS011;13185;50.872;5.306;2023-11-21T02:21:19;34.08;;;16.80;;
25237;SDS011;13185;50.872;5.306;2023-11-21T02:23:44;35.60;;;17.02;;
25237;SDS011;13185;50.872;5.306;2023-11-21T02:26:12;33.13;;;16.75;;
25237;SDS011;13185;50.872;5.306;2023-11-21T02:28:39;29.42;;;15.73;;
25237;SDS011;13185;50.872;5.306;2023-11-21T02:31:07;34.05;;;16.83;;
25237;SDS011;13185;50.872;5.306;2023-11-21T02:33:33;37.72;;;18.05;;
25237;SDS011;13185;50.872;5.306;2023-11-21T02:35:59;37.00;;;17.50;;
25237;SDS011;13185;50.872;5.306;2023-11-21T02:38:25;40.28;;;17.25;;
25237;SDS011;13185;50.872;5.306;2023-11-21T02:40:54;32.70;;;17.85;;
25237;SDS011;13185;50.872;5.306;2023-11-21T02:43:19;36.22;;;18.25;;
25237;SDS011;13185;50.872;5.306;2023-11-21T02:45:45;37.67;;;18.20;;
25237;SDS011;13185;50.872;5.306;2023-11-21T02:48:11;38.92;;;17.63;;
25237;SDS011;13185;50.872;5.306;2023-11-21T02:50:37;36.92;;;19.05;;
25237;SDS011;13185;50.872;5.306;2023-11-21T02:53:03;32.42;;;17.35;;
25237;SDS011;13185;50.872;5.306;2023-11-21T02:55:31;40.08;;;20.08;;
25237;SDS011;13185;50.872;5.306;2023-11-21T02:57:59;38.90;;;17.33;;
25237;SDS011;13185;50.872;5.306;2023-11-21T03:00:28;33.20;;;18.38;;
25237;SDS011;13185;50.872;5.306;2023-11-21T03:02:56;40.20;;;18.42;;
25237;SDS011;13185;50.872;5.306;2023-11-21T03:05:24;39.78;;;19.92;;
25237;SDS011;13185;50.872;5.306;2023-11-21T03:07:50;40.22;;;20.10;;
25237;SDS011;13185;50.872;5.306;2023-11-21T03:10:15;36.90;;;18.15;;
25237;SDS011;13185;50.872;5.306;2023-11-21T03:12:41;44.47;;;19.17;;
25237;SDS011;13185;50.872;5.306;2023-11-21T03:15:07;41.63;;;20.10;;
25237;SDS011;13185;50.872;5.306;2023-11-21T03:17:33;44.08;;;20.52;;
25237;SDS011;13185;50.872;5.306;2023-11-21T03:19:59;45.42;;;20.95;;
25237;SDS011;13185;50.872;5.306;2023-11-21T03:22:25;50.35;;;22.45;;
25237;SDS011;13185;50.872;5.306;2023-11-21T03:24:51;48.53;;;21.33;;
25237;SDS011;13185;50.872;5.306;2023-11-21T03:27:17;47.90;;;22.55;;
25237;SDS011;13185;50.872;5.306;2023-11-21T03:29:43;43.88;;;21.20;;
25237;SDS011;13185;50.872;5.306;2023-11-21T03:32:10;47.25;;;21.77;;
25237;SDS011;13185;50.872;5.306;2023-11-21T03:34:52;47.80;;;21.52;;
25237;SDS011;13185;50.872;5.306;2023-11-21T03:37:20;42.55;;;20.00;;
25237;SDS011;13185;50.872;5.306;2023-11-21T03:39:46;42.72;;;20.00;;
25237;SDS011;13185;50.872;5.306;2023-11-21T03:42:11;45.40;;;21.15;;
25237;SDS011;13185;50.872;5.306;2023-11-21T03:44:37;41.22;;;21.70;;
25237;SDS011;13185;50.872;5.306;2023-11-21T03:47:03;46.20;;;20.98;;
25237;SDS011;13185;50.872;5.306;2023-11-21T03:49:28;48.88;;;21.92;;
25237;SDS011;13185;50.872;5.306;2023-11-21T03:51:54;48.58;;;21.55;;
25237;SDS011;13185;50.872;5.306;2023-11-21T03:54:21;43.30;;;21.23;;
25237;SDS011;13185;50.872;5.306;2023-11-21T03:56:46;48.00;;;21.00;;
25237;SDS011;13185;50.872;5.306;2023-11-21T03:59:11;46.03;;;22.02;;
25237;SDS011;13185;50.872;5.306;2023-11-21T04:01:37;45.72;;;21.23;;
25237;SDS011;13185;50.872;5.306;2023-11-21T04:04:03;45.00;;;20.63;;
25237;SDS011;13185;50.872;5.306;2023-11-21T04:06:29;39.38;;;18.50;;
25237;SDS011;13185;50.872;5.306;2023-11-21T04:08:55;40.10;;;18.90;;
25237;SDS011;13185;50.872;5.306;2023-11-21T04:11:20;37.95;;;18.20;;
25237;SDS011;13185;50.872;5.306;2023-11-21T04:13:45;36.10;;;17.70;;
25237;SDS011;13185;50.872;5.306;2023-11-21T04:16:12;37.58;;;18.85;;
25237;SDS011;13185;50.872;5.306;2023-11-21T04:18:38;41.75;;;18.50;;
25237;SDS011;13185;50.872;5.306;2023-11-21T04:21:06;39.40;;;18.80;;
25237;SDS011;13185;50.872;5.306;2023-11-21T04:23:33;40.00;;;19.10;;
25237;SDS011;13185;50.872;5.306;2023-11-21T04:25:59;42.72;;;19.63;;
25237;SDS011;13185;50.872;5.306;2023-11-21T04:28:25;36.92;;;17.17;;
25237;SDS011;13185;50.872;5.306;2023-11-21T04:30:50;38.55;;;18.65;;
25237;SDS011;13185;50.872;5.306;2023-11-21T04:33:16;43.60;;;19.23;;
25237;SDS011;13185;50.872;5.306;2023-11-21T04:35:41;37.90;;;18.23;;
25237;SDS011;13185;50.872;5.306;2023-11-21T04:38:07;40.22;;;17.98;;
25237;SDS011;13185;50.872;5.306;2023-11-21T04:40:32;39.55;;;18.88;;
25237;SDS011;13185;50.872;5.306;2023-11-21T04:42:58;42.58;;;20.05;;
25237;SDS011;13185;50.872;5.306;2023-11-21T04:45:23;39.50;;;17.83;;
25237;SDS011;13185;50.872;5.306;2023-11-21T04:47:49;40.88;;;18.58;;
25237;SDS011;13185;50.872;5.306;2023-11-21T04:50:14;45.70;;;19.48;;
25237;SDS011;13185;50.872;5.306;2023-11-21T04:52:40;51.17;;;21.00;;
25237;SDS011;13185;50.872;5.306;2023-11-21T04:55:05;54.35;;;20.85;;
25237;SDS011;13185;50.872;5.306;2023-11-21T04:57:35;48.83;;;19.27;;
25237;SDS011;13185;50.872;5.306;2023-11-21T05:00:06;47.72;;;20.88;;
25237;SDS011;13185;50.872;5.306;2023-11-21T05:02:34;49.53;;;20.90;;
25237;SDS011;13185;50.872;5.306;2023-11-21T05:05:00;53.70;;;20.90;;
25237;SDS011;13185;50.872;5.306;2023-11-21T05:07:26;57.17;;;23.00;;
25237;SDS011;13185;50.872;5.306;2023-11-21T05:09:54;51.75;;;21.40;;
25237;SDS011;13185;50.872;5.306;2023-11-21T05:12:21;57.63;;;21.90;;
25237;SDS011;13185;50.872;5.306;2023-11-21T05:14:48;51.20;;;21.10;;
25237;SDS011;13185;50.872;5.306;2023-11-21T05:17:14;49.58;;;20.33;;
25237;SDS011;13185;50.872;5.306;2023-11-21T05:19:40;51.25;;;20.92;;
25237;SDS011;13185;50.872;5.306;2023-11-21T05:22:06;53.58;;;21.77;;
25237;SDS011;13185;50.872;5.306;2023-11-21T05:24:31;48.92;;;20.63;;
25237;SDS011;13185;50.872;5.306;2023-11-21T05:26:57;49.05;;;20.30;;
25237;SDS011;13185;50.872;5.306;2023-11-21T05:29:23;50.60;;;21.98;;
25237;SDS011;13185;50.872;5.306;2023-11-21T05:31:48;51.88;;;20.40;;
25237;SDS011;13185;50.872;5.306;2023-11-21T05:34:14;46.97;;;20.73;;
25237;SDS011;13185;50.872;5.306;2023-11-21T05:36:42;53.38;;;21.40;;
25237;SDS011;13185;50.872;5.306;2023-11-21T05:39:08;50.75;;;21.20;;
25237;SDS011;13185;50.872;5.306;2023-11-21T05:41:36;54.53;;;20.92;;
25237;SDS011;13185;50.872;5.306;2023-11-21T05:44:02;50.72;;;20.23;;
25237;SDS011;13185;50.872;5.306;2023-11-21T05:46:27;49.20;;;20.45;;
25237;SDS011;13185;50.872;5.306;2023-11-21T05:48:53;45.85;;;19.88;;
25237;SDS011;13185;50.872;5.306;2023-11-21T05:51:18;51.15;;;19.88;;
25237;SDS011;13185;50.872;5.306;2023-11-21T05:53:44;51.03;;;20.92;;
25237;SDS011;13185;50.872;5.306;2023-11-21T05:56:09;44.47;;;19.10;;
25237;SDS011;13185;50.872;5.306;2023-11-21T05:58:35;48.30;;;19.88;;
25237;SDS011;13185;50.872;5.306;2023-11-21T06:01:00;49.00;;;19.60;;
25237;SDS011;13185;50.872;5.306;2023-11-21T06:03:26;49.00;;;20.80;;
25237;SDS011;13185;50.872;5.306;2023-11-21T06:05:51;56.20;;;20.48;;
25237;SDS011;13185;50.872;5.306;2023-11-21T06:08:17;49.92;;;20.33;;
25237;SDS011;13185;50.872;5.306;2023-11-21T06:10:42;49.42;;;19.13;;
25237;SDS011;13185;50.872;5.306;2023-11-21T06:13:09;52.13;;;21.45;;
25237;SDS011;13185;50.872;5.306;2023-11-21T06:15:35;52.40;;;21.75;;
25237;SDS011;13185;50.872;5.306;2023-11-21T06:18:01;61.65;;;24.55;;
25237;SDS011;13185;50.872;5.306;2023-11-21T06:20:27;50.13;;;22.30;;
25237;SDS011;13185;50.872;5.306;2023-11-21T06:22:52;61.55;;;22.23;;
25237;SDS011;13185;50.872;5.306;2023-11-21T06:25:18;63.25;;;24.17;;
25237;SDS011;13185;50.872;5.306;2023-11-21T06:27:45;61.00;;;23.75;;
25237;SDS011;13185;50.872;5.306;2023-11-21T06:30:13;54.00;;;22.52;;
25237;SDS011;13185;50.872;5.306;2023-11-21T06:32:40;56.60;;;23.90;;
25237;SDS011;13185;50.872;5.306;2023-11-21T06:35:07;51.47;;;22.63;;
25237;SDS011;13185;50.872;5.306;2023-11-21T06:37:36;54.30;;;21.45;;
25237;SDS011;13185;50.872;5.306;2023-11-21T06:40:01;48.65;;;20.38;;
25237;SDS011;13185;50.872;5.306;2023-11-21T06:42:29;52.03;;;20.10;;
25237;SDS011;13185;50.872;5.306;2023-11-21T06:44:55;47.60;;;19.92;;
25237;SDS011;13185;50.872;5.306;2023-11-21T06:47:22;54.15;;;21.40;;
25237;SDS011;13185;50.872;5.306;2023-11-21T06:49:50;48.50;;;20.65;;
25237;SDS011;13185;50.872;5.306;2023-11-21T06:52:16;47.20;;;19.67;;
25237;SDS011;13185;50.872;5.306;2023-11-21T06:54:43;41.35;;;19.88;;
25237;SDS011;13185;50.872;5.306;2023-11-21T06:57:09;44.60;;;19.17;;
25237;SDS011;13185;50.872;5.306;2023-11-21T06:59:34;44.17;;;19.38;;
25237;SDS011;13185;50.872;5.306;2023-11-21T07:02:00;46.95;;;20.35;;
25237;SDS011;13185;50.872;5.306;2023-11-21T07:04:25;43.42;;;19.42;;
25237;SDS011;13185;50.872;5.306;2023-11-21T07:06:54;43.47;;;18.27;;
25237;SDS011;13185;50.872;5.306;2023-11-21T07:09:20;44.42;;;20.20;;
25237;SDS011;13185;50.872;5.306;2023-11-21T07:11:48;44.17;;;20.73;;
25237;SDS011;13185;50.872;5.306;2023-11-21T07:14:14;44.28;;;19.17;;
25237;SDS011;13185;50.872;5.306;2023-11-21T07:16:42;40.88;;;18.30;;
25237;SDS011;13185;50.872;5.306;2023-11-21T07:19:08;42.90;;;19.55;;
25237;SDS011;13185;50.872;5.306;2023-11-21T07:21:34;40.95;;;18.00;;
25237;SDS011;13185;50.872;5.306;2023-11-21T07:24:01;35.60;;;17.90;;
25237;SDS011;13185;50.872;5.306;2023-11-21T07:26:27;40.88;;;18.98;;
25237;SDS011;13185;50.872;5.306;2023-11-21T07:28:53;38.95;;;19.90;;
25237;SDS011;13185;50.872;5.306;2023-11-21T07:31:19;40.47;;;18.63;;
25237;SDS011;13185;50.872;5.306;2023-11-21T07:33:48;38.22;;;17.63;;
25237;SDS011;13185;50.872;5.306;2023-11-21T07:36:14;37.72;;;18.63;;
25237;SDS011;13185;50.872;5.306;2023-11-21T07:38:40;41.33;;;18.10;;
25237;SDS011;13185;50.872;5.306;2023-11-21T07:41:06;43.42;;;19.17;;
25237;SDS011;13185;50.872;5.306;2023-11-21T07:43:33;46.47;;;19.50;;
25237;SDS011;13185;50.872;5.306;2023-11-21T07:46:03;47.10;;;19.65;;
25237;SDS011;13185;50.872;5.306;2023-11-21T07:48:29;40.50;;;18.38;;
25237;SDS011;13185;50.872;5.306;2023-11-21T07:51:17;47.33;;;20.10;;
25237;SDS011;13185;50.872;5.306;2023-11-21T07:53:43;47.90;;;19.52;;
25237;SDS011;13185;50.872;5.306;2023-11-21T07:56:09;42.30;;;18.65;;
25237;SDS011;13185;50.872;5.306;2023-11-21T07:58:35;47.03;;;19.90;;
25237;SDS011;13185;50.872;5.306;2023-11-21T08:01:01;40.00;;;18.65;;
25237;SDS011;13185;50.872;5.306;2023-11-21T08:03:27;41.08;;;18.33;;
25237;SDS011;13185;50.872;5.306;2023-11-21T08:05:54;44.15;;;17.50;;
25237;SDS011;13185;50.872;5.306;2023-11-21T08:08:20;40.10;;;17.73;;
25237;SDS011;13185;50.872;5.306;2023-11-21T08:10:46;38.85;;;18.63;;
25237;SDS011;13185;50.872;5.306;2023-11-21T08:13:24;37.92;;;18.48;;
25237;SDS011;13185;50.872;5.306;2023-11-21T08:15:53;39.15;;;18.08;;
25237;SDS011;13185;50.872;5.306;2023-11-21T08:18:19;39.83;;;18.02;;
25237;SDS011;13185;50.872;5.306;2023-11-21T08:20:45;34.88;;;17.02;;
25237;SDS011;13185;50.872;5.306;2023-11-21T08:23:20;33.30;;;16.58;;
25237;SDS011;13185;50.872;5.306;2023-11-21T08:25:46;35.75;;;17.45;;
25237;SDS011;13185;50.872;5.306;2023-11-21T08:28:12;30.02;;;14.63;;
25237;SDS011;13185;50.872;5.306;2023-11-21T08:30:39;35.70;;;16.00;;
25237;SDS011;13185;50.872;5.306;2023-11-21T08:33:06;31.90;;;16.08;;
25237;SDS011;13185;50.872;5.306;2023-11-21T08:35:33;38.13;;;17.60;;
25237;SDS011;13185;50.872;5.306;2023-11-21T08:37:59;35.75;;;16.08;;
25237;SDS011;13185;50.872;5.306;2023-11-21T08:40:25;32.70;;;16.02;;
25237;SDS011;13185;50.872;5.306;2023-11-21T08:42:50;33.55;;;16.35;;
25237;SDS011;13185;50.872;5.306;2023-11-21T08:45:17;41.85;;;16.85;;
25237;SDS011;13185;50.872;5.306;2023-11-21T08:47:43;30.92;;;14.90;;
25237;SDS011;13185;50.872;5.306;2023-11-21T08:50:09;30.40;;;14.90;;
25237;SDS011;13185;50.872;5.306;2023-11-21T08:52:37;33.00;;;16.48;;
25237;SDS011;13185;50.872;5.306;2023-11-21T08:55:04;35.15;;;16.50;;
25237;SDS011;13185;50.872;5.306;2023-11-21T08:57:35;32.40;;;16.83;;
25237;SDS011;13185;50.872;5.306;2023-11-21T09:00:05;29.92;;;16.25;;
25237;SDS011;13185;50.872;5.306;2023-11-21T09:02:32;31.02;;;15.98;;
25237;SDS011;13185;50.872;5.306;2023-11-21T09:04:59;27.20;;;15.13;;
25237;SDS011;13185;50.872;5.306;2023-11-21T09:07:28;30.50;;;15.63;;
25237;SDS011;13185;50.872;5.306;2023-11-21T09:09:54;29.27;;;15.13;;
25237;SDS011;13185;50.872;5.306;2023-11-21T09:12:20;25.42;;;14.85;;
25237;SDS011;13185;50.872;5.306;2023-11-21T09:14:46;26.20;;;13.85;;
25237;SDS011;13185;50.872;5.306;2023-11-21T09:17:11;28.38;;;14.60;;
25237;SDS011;13185;50.872;5.306;2023-11-21T09:19:37;28.08;;;13.95;;
25237;SDS011;13185;50.872;5.306;2023-11-21T09:22:03;23.52;;;13.90;;
25237;SDS011;13185;50.872;5.306;2023-11-21T09:24:30;28.38;;;13.85;;
25237;SDS011;13185;50.872;5.306;2023-11-21T09:26:56;22.58;;;14.18;;
25237;SDS011;13185;50.872;5.306;2023-11-21T09:29:22;25.30;;;14.60;;
25237;SDS011;13185;50.872;5.306;2023-11-21T09:31:47;22.38;;;14.38;;
25237;SDS011;13185;50.872;5.306;2023-11-21T09:34:16;22.80;;;13.13;;
25237;SDS011;13185;50.872;5.306;2023-11-21T09:36:44;23.95;;;14.13;;
25237;SDS011;13185;50.872;5.306;2023-11-21T09:39:10;24.08;;;14.45;;
25237;SDS011;13185;50.872;5.306;2023-11-21T09:41:49;24.35;;;14.15;;
25237;SDS011;13185;50.872;5.306;2023-11-21T09:44:20;21.10;;;13.25;;
25237;SDS011;13185;50.872;5.306;2023-11-21T09:46:55;24.05;;;13.52;;
25237;SDS011;13185;50.872;5.306;2023-11-21T09:49:24;27.95;;;13.30;;
25237;SDS011;13185;50.872;5.306;2023-11-21T09:51:52;26.40;;;13.07;;
25237;SDS011;13185;50.872;5.306;2023-11-21T09:54:21;24.00;;;13.02;;
25237;SDS011;13185;50.872;5.306;2023-11-21T09:56:47;19.90;;;12.18;;
25237;SDS011;13185;50.872;5.306;2023-11-21T09:59:13;21.67;;;13.25;;
25237;SDS011;13185;50.872;5.306;2023-11-21T10:01:41;21.15;;;11.30;;
25237;SDS011;13185;50.872;5.306;2023-11-21T10:04:08;20.15;;;11.60;;
25237;SDS011;13185;50.872;5.306;2023-11-21T10:06:39;20.00;;;12.23;;
25237;SDS011;13185;50.872;5.306;2023-11-21T10:09:11;21.75;;;12.13;;
25237;SDS011;13185;50.872;5.306;2023-11-21T10:11:42;19.58;;;11.85;;
25237;SDS011;13185;50.872;5.306;2023-11-21T10:14:10;20.35;;;11.52;;
25237;SDS011;13185;50.872;5.306;2023-11-21T10:16:38;20.95;;;11.73;;
25237;SDS011;13185;50.872;5.306;2023-11-21T10:19:04;20.95;;;11.88;;
25237;SDS011;13185;50.872;5.306;2023-11-21T10:21:34;23.40;;;11.65;;
25237;SDS011;13185;50.872;5.306;2023-11-21T10:23:59;20.48;;;11.50;;
25237;SDS011;13185;50.872;5.306;2023-11-21T10:26:26;22.85;;;12.10;;
25237;SDS011;13185;50.872;5.306;2023-11-21T10:28:59;22.50;;;11.20;;
25237;SDS011;13185;50.872;5.306;2023-11-21T10:31:26;20.98;;;11.45;;
25237;SDS011;13185;50.872;5.306;2023-11-21T10:33:52;20.23;;;11.20;;
25237;SDS011;13185;50.872;5.306;2023-11-21T10:36:24;19.85;;;11.52;;
25237;SDS011;13185;50.872;5.306;2023-11-21T10:38:53;20.85;;;11.05;;
25237;SDS011;13185;50.872;5.306;2023-11-21T10:41:19;21.67;;;11.15;;
25237;SDS011;13185;50.872;5.306;2023-11-21T10:43:47;22.33;;;11.60;;
25237;SDS011;13185;50.872;5.306;2023-11-21T10:46:14;24.67;;;11.20;;
25237;SDS011;13185;50.872;5.306;2023-11-21T10:48:41;21.83;;;12.25;;
25237;SDS011;13185;50.872;5.306;2023-11-21T10:51:07;20.90;;;12.88;;
25237;SDS011;13185;50.872;5.306;2023-11-21T10:53:37;24.40;;;12.88;;
25237;SDS011;13185;50.872;5.306;2023-11-21T10:56:08;22.60;;;12.23;;
25237;SDS011;13185;50.872;5.306;2023-11-21T10:58:36;24.88;;;12.85;;
25237;SDS011;13185;50.872;5.306;2023-11-21T11:01:04;22.73;;;12.32;;
25237;SDS011;13185;50.872;5.306;2023-11-21T11:03:32;22.35;;;13.13;;
25237;SDS011;13185;50.872;5.306;2023-11-21T11:05:59;24.88;;;12.60;;
25237;SDS011;13185;50.872;5.306;2023-11-21T11:08:25;29.42;;;14.18;;
25237;SDS011;13185;50.872;5.306;2023-11-21T11:10:52;26.50;;;13.65;;
25237;SDS011;13185;50.872;5.306;2023-11-21T11:13:18;24.38;;;12.68;;
25237;SDS011;13185;50.872;5.306;2023-11-21T11:15:47;23.92;;;12.68;;
25237;SDS011;13185;50.872;5.306;2023-11-21T11:18:13;26.50;;;13.55;;
25237;SDS011;13185;50.872;5.306;2023-11-21T11:20:40;21.40;;;12.85;;
25237;SDS011;13185;50.872;5.306;2023-11-21T11:37:23;20.25;;;11.30;;
25237;SDS011;13185;50.872;5.306;2023-11-21T11:39:49;21.48;;;10.60;;
25237;SDS011;13185;50.872;5.306;2023-11-21T11:42:15;16.80;;;9.57;;
25237;SDS011;13185;50.872;5.306;2023-11-21T11:44:46;18.33;;;11.15;;
25237;SDS011;13185;50.872;5.306;2023-11-21T11:47:29;19.83;;;10.73;;
25237;SDS011;13185;50.872;5.306;2023-11-21T11:50:06;17.98;;;10.40;;
25237;SDS011;13185;50.872;5.306;2023-11-21T11:55:14;18.98;;;10.82;;
25237;SDS011;13185;50.872;5.306;2023-11-21T11:57:44;19.75;;;11.25;;
25237;SDS011;13185;50.872;5.306;2023-11-21T12:00:19;20.58;;;12.20;;
25237;SDS011;13185;50.872;5.306;2023-11-21T12:02:47;21.65;;;12.88;;
25237;SDS011;13185;50.872;5.306;2023-11-21T12:05:14;22.05;;;12.18;;
25237;SDS011;13185;50.872;5.306;2023-11-21T12:10:13;23.75;;;14.52;;
25237;SDS011;13185;50.872;5.306;2023-11-21T12:12:43;27.25;;;14.88;;
25237;SDS011;13185;50.872;5.306;2023-11-21T12:15:13;28.23;;;15.10;;
25237;SDS011;13185;50.872;5.306;2023-11-21T12:17:39;29.52;;;15.27;;
25237;SDS011;13185;50.872;5.306;2023-11-21T12:20:07;28.77;;;15.15;;
25237;SDS011;13185;50.872;5.306;2023-11-21T12:22:46;28.58;;;15.48;;
25237;SDS011;13185;50.872;5.306;2023-11-21T12:27:41;25.88;;;14.25;;
25237;SDS011;13185;50.872;5.306;2023-11-21T12:30:08;26.25;;;15.32;;
25237;SDS011;13185;50.872;5.306;2023-11-21T12:32:39;26.88;;;15.02;;
25237;SDS011;13185;50.872;5.306;2023-11-21T12:35:06;26.17;;;13.95;;
25237;SDS011;13185;50.872;5.306;2023-11-21T12:37:35;23.65;;;13.98;;
25237;SDS011;13185;50.872;5.306;2023-11-21T12:40:02;25.15;;;14.27;;
25237;SDS011;13185;50.872;5.306;2023-11-21T12:42:27;28.23;;;14.38;;
25237;SDS011;13185;50.872;5.306;2023-11-21T12:50:33;26.10;;;14.00;;
25237;SDS011;13185;50.872;5.306;2023-11-21T12:53:11;22.92;;;14.13;;
25237;SDS011;13185;50.872;5.306;2023-11-21T12:55:38;20.00;;;12.68;;
25237;SDS011;13185;50.872;5.306;2023-11-21T12:58:05;22.55;;;12.82;;
25237;SDS011;13185;50.872;5.306;2023-11-21T13:00:47;22.50;;;13.20;;
25237;SDS011;13185;50.872;5.306;2023-11-21T13:03:15;20.75;;;13.13;;
25237;SDS011;13185;50.872;5.306;2023-11-21T13:05:43;20.02;;;12.55;;
25237;SDS011;13185;50.872;5.306;2023-11-21T13:08:11;21.23;;;12.13;;
25237;SDS011;13185;50.872;5.306;2023-11-21T13:10:38;23.48;;;14.23;;
25237;SDS011;13185;50.872;5.306;2023-11-21T13:13:10;23.27;;;13.15;;
25237;SDS011;13185;50.872;5.306;2023-11-21T13:15:55;22.58;;;12.73;;
25237;SDS011;13185;50.872;5.306;2023-11-21T13:18:29;24.20;;;14.10;;
25237;SDS011;13185;50.872;5.306;2023-11-21T13:20:56;19.73;;;12.95;;
25237;SDS011;13185;50.872;5.306;2023-11-21T13:23:25;25.65;;;14.57;;
25237;SDS011;13185;50.872;5.306;2023-11-21T13:25:52;22.90;;;14.27;;
25237;SDS011;13185;50.872;5.306;2023-11-21T13:28:18;23.38;;;14.00;;
25237;SDS011;13185;50.872;5.306;2023-11-21T13:30:46;22.00;;;14.55;;
25237;SDS011;13185;50.872;5.306;2023-11-21T13:33:13;23.45;;;14.73;;
25237;SDS011;13185;50.872;5.306;2023-11-21T13:35:43;22.55;;;13.80;;
25237;SDS011;13185;50.872;5.306;2023-11-21T13:38:13;21.15;;;13.45;;
25237;SDS011;13185;50.872;5.306;2023-11-21T13:40:42;23.30;;;13.95;;
25237;SDS011;13185;50.872;5.306;2023-11-21T13:43:14;23.00;;;14.35;;
25237;SDS011;13185;50.872;5.306;2023-11-21T13:45:42;22.85;;;15.07;;
25237;SDS011;13185;50.872;5.306;2023-11-21T13:48:09;22.17;;;14.07;;
25237;SDS011;13185;50.872;5.306;2023-11-21T13:50:37;26.77;;;15.13;;
25237;SDS011;13185;50.872;5.306;2023-11-21T13:53:04;25.73;;;15.63;;
25237;SDS011;13185;50.872;5.306;2023-11-21T13:55:44;29.95;;;15.98;;
25237;SDS011;13185;50.872;5.306;2023-11-21T13:58:10;26.45;;;15.18;;
25237;SDS011;13185;50.872;5.306;2023-11-21T14:00:41;28.23;;;16.77;;
25237;SDS011;13185;50.872;5.306;2023-11-21T14:03:10;26.17;;;15.90;;
25237;SDS011;13185;50.872;5.306;2023-11-21T14:05:45;31.63;;;15.35;;
25237;SDS011;13185;50.872;5.306;2023-11-21T14:08:19;24.67;;;15.07;;
25237;SDS011;13185;50.872;5.306;2023-11-21T14:10:47;21.80;;;13.85;;
25237;SDS011;13185;50.872;5.306;2023-11-21T14:13:18;23.20;;;13.40;;
25237;SDS011;13185;50.872;5.306;2023-11-21T14:15:48;19.60;;;13.45;;
25237;SDS011;13185;50.872;5.306;2023-11-21T14:18:16;20.38;;;12.32;;
25237;SDS011;13185;50.872;5.306;2023-11-21T14:20:43;19.10;;;11.57;;
25237;SDS011;13185;50.872;5.306;2023-11-21T14:23:09;19.75;;;12.60;;
25237;SDS011;13185;50.872;5.306;2023-11-21T14:25:36;20.30;;;12.40;;
25237;SDS011;13185;50.872;5.306;2023-11-21T14:28:04;22.45;;;12.88;;
25237;SDS011;13185;50.872;5.306;2023-11-21T14:30:31;21.50;;;12.93;;
25237;SDS011;13185;50.872;5.306;2023-11-21T14:32:59;20.85;;;12.32;;
25237;SDS011;13185;50.872;5.306;2023-11-21T14:35:26;20.58;;;12.38;;
25237;SDS011;13185;50.872;5.306;2023-11-21T14:37:52;18.70;;;12.15;;
25237;SDS011;13185;50.872;5.306;2023-11-21T14:40:18;18.92;;;12.00;;
25237;SDS011;13185;50.872;5.306;2023-11-21T14:42:47;21.63;;;12.80;;
25237;SDS011;13185;50.872;5.306;2023-11-21T14:45:13;19.83;;;12.60;;
25237;SDS011;13185;50.872;5.306;2023-11-21T14:47:42;15.43;;;11.55;;
25237;SDS011;13185;50.872;5.306;2023-11-21T14:50:13;16.65;;;11.27;;